sensor_id;sensor_type;location;lat;lon;timestamp;P1;durP1;ratioP1;P2;durP2;ratioP2
26598;SDS011;14240;51.064;16.612;2023-08-24T00:00:45;11.75;;;5.72;;
26598;SDS011;14240;51.064;16.612;2023-08-24T00:03:11;9.93;;;5.93;;
26598;SDS011;14240;51.064;16.612;2023-08-24T00:05:37;10.65;;;6.28;;
26598;SDS011;14240;51.064;16.612;2023-08-24T00:08:04;10.82;;;6.43;;
26598;SDS011;14240;51.064;16.612;2023-08-24T00:10:30;13.98;;;6.63;;
26598;SDS011;14240;51.064;16.612;2023-08-24T00:12:55;14.70;;;6.22;;
26598;SDS011;14240;51.064;16.612;2023-08-24T00:15:21;12.88;;;5.88;;
26598;SDS011;14240;51.064;16.612;2023-08-24T00:17:47;15.90;;;6.10;;
26598;SDS011;14240;51.064;16.612;2023-08-24T00:20:13;9.25;;;5.40;;
26598;SDS011;14240;51.064;16.612;2023-08-24T00:22:38;11.52;;;5.97;;
26598;SDS011;14240;51.064;16.612;2023-08-24T00:25:05;10.27;;;5.50;;
26598;SDS011;14240;51.064;16.612;2023-08-24T00:27:32;12.20;;;5.50;;
26598;SDS011;14240;51.064;16.612;2023-08-24T00:29:58;9.48;;;5.40;;
26598;SDS011;14240;51.064;16.612;2023-08-24T00:32:24;9.68;;;5.75;;
26598;SDS011;14240;51.064;16.612;2023-08-24T00:34:50;11.45;;;5.60;;
26598;SDS011;14240;51.064;16.612;2023-08-24T00:37:15;9.38;;;5.55;;
26598;SDS011;14240;51.064;16.612;2023-08-24T00:39:42;9.23;;;5.18;;
26598;SDS011;14240;51.064;16.612;2023-08-24T00:42:07;8.48;;;5.25;;
26598;SDS011;14240;51.064;16.612;2023-08-24T00:44:38;10.50;;;6.53;;
26598;SDS011;14240;51.064;16.612;2023-08-24T00:47:03;11.52;;;5.97;;
26598;SDS011;14240;51.064;16.612;2023-08-24T00:49:29;12.05;;;6.55;;
26598;SDS011;14240;51.064;16.612;2023-08-24T00:51:55;9.68;;;6.78;;
26598;SDS011;14240;51.064;16.612;2023-08-24T00:54:21;9.90;;;5.38;;
26598;SDS011;14240;51.064;16.612;2023-08-24T00:56:47;11.30;;;7.30;;
26598;SDS011;14240;51.064;16.612;2023-08-24T00:59:13;13.00;;;6.70;;
26598;SDS011;14240;51.064;16.612;2023-08-24T01:01:39;12.88;;;6.80;;
26598;SDS011;14240;51.064;16.612;2023-08-24T01:04:06;14.30;;;6.00;;
26598;SDS011;14240;51.064;16.612;2023-08-24T01:06:32;13.82;;;6.75;;
26598;SDS011;14240;51.064;16.612;2023-08-24T01:08:58;11.60;;;6.97;;
26598;SDS011;14240;51.064;16.612;2023-08-24T01:11:31;10.35;;;6.90;;
26598;SDS011;14240;51.064;16.612;2023-08-24T01:16:47;13.43;;;6.82;;
26598;SDS011;14240;51.064;16.612;2023-08-24T01:19:29;13.88;;;6.78;;
26598;SDS011;14240;51.064;16.612;2023-08-24T01:22:15;13.40;;;7.40;;
26598;SDS011;14240;51.064;16.612;2023-08-24T01:25:00;15.07;;;8.25;;
26598;SDS011;14240;51.064;16.612;2023-08-24T01:27:36;13.55;;;7.65;;
26598;SDS011;14240;51.064;16.612;2023-08-24T01:30:05;11.63;;;7.75;;
26598;SDS011;14240;51.064;16.612;2023-08-24T01:32:33;13.25;;;7.72;;
26598;SDS011;14240;51.064;16.612;2023-08-24T01:35:04;12.70;;;7.50;;
26598;SDS011;14240;51.064;16.612;2023-08-24T01:37:32;15.55;;;8.02;;
26598;SDS011;14240;51.064;16.612;2023-08-24T01:42:35;13.32;;;6.93;;
26598;SDS011;14240;51.064;16.612;2023-08-24T01:45:09;13.98;;;6.93;;
26598;SDS011;14240;51.064;16.612;2023-08-24T01:47:36;11.15;;;7.22;;
26598;SDS011;14240;51.064;16.612;2023-08-24T01:50:04;12.23;;;7.63;;
26598;SDS011;14240;51.064;16.612;2023-08-24T01:52:31;14.15;;;7.32;;
26598;SDS011;14240;51.064;16.612;2023-08-24T01:54:57;7.85;;;6.07;;
26598;SDS011;14240;51.064;16.612;2023-08-24T01:57:23;9.80;;;6.40;;
26598;SDS011;14240;51.064;16.612;2023-08-24T01:59:49;13.40;;;6.55;;
26598;SDS011;14240;51.064;16.612;2023-08-24T02:02:14;9.63;;;6.45;;
26598;SDS011;14240;51.064;16.612;2023-08-24T02:04:40;12.68;;;6.55;;
26598;SDS011;14240;51.064;16.612;2023-08-24T02:07:06;11.10;;;5.97;;
26598;SDS011;14240;51.064;16.612;2023-08-24T02:09:31;12.25;;;6.30;;
26598;SDS011;14240;51.064;16.612;2023-08-24T02:11:57;11.43;;;6.32;;
26598;SDS011;14240;51.064;16.612;2023-08-24T02:14:23;12.32;;;7.28;;
26598;SDS011;14240;51.064;16.612;2023-08-24T02:16:48;11.85;;;6.30;;
26598;SDS011;14240;51.064;16.612;2023-08-24T02:19:14;12.60;;;6.35;;
26598;SDS011;14240;51.064;16.612;2023-08-24T02:21:40;10.48;;;7.70;;
26598;SDS011;14240;51.064;16.612;2023-08-24T02:24:06;13.23;;;7.65;;
26598;SDS011;14240;51.064;16.612;2023-08-24T02:26:31;21.35;;;7.35;;
26598;SDS011;14240;51.064;16.612;2023-08-24T02:28:57;17.85;;;7.53;;
26598;SDS011;14240;51.064;16.612;2023-08-24T02:31:24;12.40;;;6.82;;
26598;SDS011;14240;51.064;16.612;2023-08-24T02:33:49;12.25;;;7.07;;
26598;SDS011;14240;51.064;16.612;2023-08-24T02:36:15;14.88;;;7.45;;
26598;SDS011;14240;51.064;16.612;2023-08-24T02:38:41;15.35;;;6.88;;
26598;SDS011;14240;51.064;16.612;2023-08-24T02:41:06;11.48;;;6.72;;
26598;SDS011;14240;51.064;16.612;2023-08-24T02:43:33;13.57;;;7.43;;
26598;SDS011;14240;51.064;16.612;2023-08-24T02:46:00;15.60;;;7.22;;
26598;SDS011;14240;51.064;16.612;2023-08-24T02:48:29;15.73;;;6.45;;
26598;SDS011;14240;51.064;16.612;2023-08-24T02:50:59;13.55;;;7.20;;
26598;SDS011;14240;51.064;16.612;2023-08-24T02:53:26;14.13;;;7.30;;
26598;SDS011;14240;51.064;16.612;2023-08-24T02:55:52;13.95;;;6.20;;
26598;SDS011;14240;51.064;16.612;2023-08-24T02:58:18;18.63;;;6.32;;
26598;SDS011;14240;51.064;16.612;2023-08-24T03:00:44;10.25;;;6.13;;
26598;SDS011;14240;51.064;16.612;2023-08-24T03:03:10;15.18;;;6.38;;
26598;SDS011;14240;51.064;16.612;2023-08-24T03:05:36;10.20;;;6.57;;
26598;SDS011;14240;51.064;16.612;2023-08-24T03:08:01;7.90;;;6.10;;
26598;SDS011;14240;51.064;16.612;2023-08-24T03:12:55;12.25;;;7.15;;
26598;SDS011;14240;51.064;16.612;2023-08-24T03:15:20;11.20;;;6.88;;
26598;SDS011;14240;51.064;16.612;2023-08-24T03:17:46;13.65;;;6.78;;
26598;SDS011;14240;51.064;16.612;2023-08-24T03:20:12;11.07;;;6.30;;
26598;SDS011;14240;51.064;16.612;2023-08-24T03:22:38;12.93;;;6.47;;
26598;SDS011;14240;51.064;16.612;2023-08-24T03:25:05;12.57;;;8.23;;
26598;SDS011;14240;51.064;16.612;2023-08-24T03:27:31;18.25;;;9.52;;
26598;SDS011;14240;51.064;16.612;2023-08-24T03:29:57;16.73;;;8.05;;
26598;SDS011;14240;51.064;16.612;2023-08-24T03:32:23;12.57;;;7.57;;
26598;SDS011;14240;51.064;16.612;2023-08-24T03:34:49;13.10;;;7.13;;
26598;SDS011;14240;51.064;16.612;2023-08-24T03:37:15;9.80;;;6.47;;
26598;SDS011;14240;51.064;16.612;2023-08-24T03:39:40;10.93;;;6.45;;
26598;SDS011;14240;51.064;16.612;2023-08-24T03:42:06;15.27;;;6.10;;
26598;SDS011;14240;51.064;16.612;2023-08-24T03:44:32;13.27;;;5.85;;
26598;SDS011;14240;51.064;16.612;2023-08-24T03:46:59;8.55;;;6.13;;
26598;SDS011;14240;51.064;16.612;2023-08-24T03:49:24;10.40;;;6.10;;
26598;SDS011;14240;51.064;16.612;2023-08-24T03:51:51;11.65;;;6.15;;
26598;SDS011;14240;51.064;16.612;2023-08-24T03:54:16;12.73;;;5.43;;
26598;SDS011;14240;51.064;16.612;2023-08-24T03:56:42;8.65;;;5.72;;
26598;SDS011;14240;51.064;16.612;2023-08-24T03:59:08;9.07;;;5.28;;
26598;SDS011;14240;51.064;16.612;2023-08-24T04:01:34;7.65;;;5.30;;
26598;SDS011;14240;51.064;16.612;2023-08-24T04:03:59;7.88;;;5.72;;
26598;SDS011;14240;51.064;16.612;2023-08-24T04:06:25;9.13;;;6.05;;
26598;SDS011;14240;51.064;16.612;2023-08-24T04:08:51;12.00;;;5.75;;
26598;SDS011;14240;51.064;16.612;2023-08-24T04:11:17;12.90;;;6.28;;
26598;SDS011;14240;51.064;16.612;2023-08-24T04:13:42;9.25;;;5.95;;
26598;SDS011;14240;51.064;16.612;2023-08-24T04:16:08;9.00;;;5.95;;
26598;SDS011;14240;51.064;16.612;2023-08-24T04:18:34;8.63;;;5.57;;
26598;SDS011;14240;51.064;16.612;2023-08-24T04:21:00;10.10;;;5.68;;
26598;SDS011;14240;51.064;16.612;2023-08-24T04:23:25;9.13;;;5.35;;
26598;SDS011;14240;51.064;16.612;2023-08-24T04:25:52;7.32;;;5.55;;
26598;SDS011;14240;51.064;16.612;2023-08-24T04:28:18;9.10;;;5.57;;
26598;SDS011;14240;51.064;16.612;2023-08-24T04:30:51;8.82;;;5.55;;
26598;SDS011;14240;51.064;16.612;2023-08-24T04:33:23;7.53;;;5.55;;
26598;SDS011;14240;51.064;16.612;2023-08-24T04:35:49;6.97;;;4.75;;
26598;SDS011;14240;51.064;16.612;2023-08-24T04:38:15;9.75;;;5.65;;
26598;SDS011;14240;51.064;16.612;2023-08-24T04:40:59;9.27;;;5.85;;
26598;SDS011;14240;51.064;16.612;2023-08-24T04:43:25;9.00;;;6.18;;
26598;SDS011;14240;51.064;16.612;2023-08-24T04:45:52;13.18;;;5.80;;
26598;SDS011;14240;51.064;16.612;2023-08-24T04:48:21;12.75;;;5.82;;
26598;SDS011;14240;51.064;16.612;2023-08-24T04:50:48;11.15;;;5.63;;
26598;SDS011;14240;51.064;16.612;2023-08-24T04:53:15;9.40;;;5.05;;
26598;SDS011;14240;51.064;16.612;2023-08-24T04:55:43;12.18;;;6.15;;
26598;SDS011;14240;51.064;16.612;2023-08-24T04:58:09;8.98;;;5.50;;
26598;SDS011;14240;51.064;16.612;2023-08-24T05:00:36;8.30;;;5.50;;
26598;SDS011;14240;51.064;16.612;2023-08-24T05:03:03;12.07;;;5.20;;
26598;SDS011;14240;51.064;16.612;2023-08-24T05:05:30;6.60;;;5.30;;
26598;SDS011;14240;51.064;16.612;2023-08-24T05:07:56;7.72;;;4.90;;
26598;SDS011;14240;51.064;16.612;2023-08-24T05:10:23;7.70;;;5.30;;
26598;SDS011;14240;51.064;16.612;2023-08-24T05:12:49;8.10;;;5.25;;
26598;SDS011;14240;51.064;16.612;2023-08-24T05:15:15;10.35;;;6.78;;
26598;SDS011;14240;51.064;16.612;2023-08-24T05:17:40;7.68;;;6.05;;
26598;SDS011;14240;51.064;16.612;2023-08-24T05:20:06;10.05;;;6.40;;
26598;SDS011;14240;51.064;16.612;2023-08-24T05:22:35;11.13;;;5.53;;
26598;SDS011;14240;51.064;16.612;2023-08-24T05:25:04;9.15;;;5.75;;
26598;SDS011;14240;51.064;16.612;2023-08-24T05:27:30;11.43;;;5.78;;
26598;SDS011;14240;51.064;16.612;2023-08-24T05:29:56;9.23;;;5.72;;
26598;SDS011;14240;51.064;16.612;2023-08-24T05:32:21;8.48;;;4.63;;
26598;SDS011;14240;51.064;16.612;2023-08-24T05:34:47;7.93;;;5.55;;
26598;SDS011;14240;51.064;16.612;2023-08-24T05:37:13;8.68;;;5.18;;
26598;SDS011;14240;51.064;16.612;2023-08-24T05:39:39;8.48;;;5.65;;
26598;SDS011;14240;51.064;16.612;2023-08-24T05:42:05;10.65;;;5.68;;
26598;SDS011;14240;51.064;16.612;2023-08-24T05:44:31;9.52;;;5.22;;
26598;SDS011;14240;51.064;16.612;2023-08-24T05:46:56;12.05;;;5.63;;
26598;SDS011;14240;51.064;16.612;2023-08-24T05:49:22;9.65;;;4.50;;
26598;SDS011;14240;51.064;16.612;2023-08-24T05:51:50;8.98;;;4.32;;
26598;SDS011;14240;51.064;16.612;2023-08-24T05:54:16;7.23;;;3.07;;
26598;SDS011;14240;51.064;16.612;2023-08-24T05:56:45;5.15;;;3.25;;
26598;SDS011;14240;51.064;16.612;2023-08-24T05:59:11;8.63;;;4.30;;
26598;SDS011;14240;51.064;16.612;2023-08-24T06:01:38;5.82;;;2.85;;
26598;SDS011;14240;51.064;16.612;2023-08-24T06:04:07;4.22;;;2.83;;
26598;SDS011;14240;51.064;16.612;2023-08-24T06:06:34;5.05;;;2.63;;
26598;SDS011;14240;51.064;16.612;2023-08-24T06:09:00;4.68;;;3.63;;
26598;SDS011;14240;51.064;16.612;2023-08-24T06:11:26;8.40;;;3.25;;
26598;SDS011;14240;51.064;16.612;2023-08-24T06:13:51;7.43;;;3.08;;
26598;SDS011;14240;51.064;16.612;2023-08-24T06:18:45;7.78;;;3.75;;
26598;SDS011;14240;51.064;16.612;2023-08-24T06:21:11;3.88;;;2.90;;
26598;SDS011;14240;51.064;16.612;2023-08-24T06:23:37;8.05;;;5.93;;
26598;SDS011;14240;51.064;16.612;2023-08-24T06:26:03;8.82;;;3.55;;
26598;SDS011;14240;51.064;16.612;2023-08-24T06:28:29;4.47;;;3.13;;
26598;SDS011;14240;51.064;16.612;2023-08-24T06:30:55;9.57;;;3.95;;
26598;SDS011;14240;51.064;16.612;2023-08-24T06:33:21;5.47;;;3.58;;
26598;SDS011;14240;51.064;16.612;2023-08-24T06:35:55;7.82;;;3.75;;
26598;SDS011;14240;51.064;16.612;2023-08-24T06:38:21;6.03;;;3.90;;
26598;SDS011;14240;51.064;16.612;2023-08-24T06:40:47;3.67;;;3.17;;
26598;SDS011;14240;51.064;16.612;2023-08-24T06:43:13;5.75;;;3.17;;
26598;SDS011;14240;51.064;16.612;2023-08-24T06:45:39;3.42;;;3.13;;
26598;SDS011;14240;51.064;16.612;2023-08-24T06:48:05;6.47;;;3.55;;
26598;SDS011;14240;51.064;16.612;2023-08-24T06:50:32;4.03;;;3.15;;
26598;SDS011;14240;51.064;16.612;2023-08-24T06:52:58;4.13;;;2.80;;
26598;SDS011;14240;51.064;16.612;2023-08-24T06:55:24;4.57;;;2.97;;
26598;SDS011;14240;51.064;16.612;2023-08-24T07:00:18;4.85;;;3.17;;
26598;SDS011;14240;51.064;16.612;2023-08-24T07:02:48;5.13;;;3.83;;
26598;SDS011;14240;51.064;16.612;2023-08-24T07:05:15;3.80;;;3.35;;
26598;SDS011;14240;51.064;16.612;2023-08-24T07:07:44;4.22;;;2.55;;
26598;SDS011;14240;51.064;16.612;2023-08-24T07:10:10;5.17;;;2.77;;
26598;SDS011;14240;51.064;16.612;2023-08-24T07:12:36;6.25;;;3.58;;
26598;SDS011;14240;51.064;16.612;2023-08-24T07:15:04;5.10;;;3.25;;
26598;SDS011;14240;51.064;16.612;2023-08-24T07:17:30;5.32;;;3.38;;
26598;SDS011;14240;51.064;16.612;2023-08-24T07:19:56;5.55;;;3.60;;
26598;SDS011;14240;51.064;16.612;2023-08-24T07:22:22;4.22;;;2.85;;
26598;SDS011;14240;51.064;16.612;2023-08-24T07:24:47;5.95;;;3.03;;
26598;SDS011;14240;51.064;16.612;2023-08-24T07:27:17;4.28;;;2.92;;
26598;SDS011;14240;51.064;16.612;2023-08-24T07:29:43;4.97;;;3.10;;
26598;SDS011;14240;51.064;16.612;2023-08-24T07:32:09;2.75;;;2.50;;
26598;SDS011;14240;51.064;16.612;2023-08-24T07:34:34;6.60;;;2.38;;
26598;SDS011;14240;51.064;16.612;2023-08-24T07:37:00;3.45;;;2.50;;
26598;SDS011;14240;51.064;16.612;2023-08-24T07:39:26;4.82;;;2.20;;
26598;SDS011;14240;51.064;16.612;2023-08-24T07:41:52;9.52;;;3.38;;
26598;SDS011;14240;51.064;16.612;2023-08-24T07:44:18;3.53;;;2.80;;
26598;SDS011;14240;51.064;16.612;2023-08-24T07:46:44;7.85;;;2.72;;
26598;SDS011;14240;51.064;16.612;2023-08-24T07:49:09;12.63;;;3.10;;
26598;SDS011;14240;51.064;16.612;2023-08-24T07:51:35;3.42;;;2.38;;
26598;SDS011;14240;51.064;16.612;2023-08-24T07:54:01;3.60;;;2.60;;
26598;SDS011;14240;51.064;16.612;2023-08-24T07:56:27;3.83;;;2.15;;
26598;SDS011;14240;51.064;16.612;2023-08-24T07:58:52;3.15;;;2.55;;
26598;SDS011;14240;51.064;16.612;2023-08-24T08:01:18;4.28;;;2.35;;
26598;SDS011;14240;51.064;16.612;2023-08-24T08:03:44;3.70;;;2.10;;
26598;SDS011;14240;51.064;16.612;2023-08-24T08:06:09;2.20;;;1.73;;
26598;SDS011;14240;51.064;16.612;2023-08-24T08:08:35;1.92;;;1.73;;
26598;SDS011;14240;51.064;16.612;2023-08-24T08:11:01;5.80;;;2.22;;
26598;SDS011;14240;51.064;16.612;2023-08-24T08:13:27;2.67;;;2.00;;
26598;SDS011;14240;51.064;16.612;2023-08-24T08:15:53;4.43;;;2.45;;
26598;SDS011;14240;51.064;16.612;2023-08-24T08:18:19;5.40;;;2.15;;
26598;SDS011;14240;51.064;16.612;2023-08-24T08:20:45;3.08;;;2.00;;
26598;SDS011;14240;51.064;16.612;2023-08-24T08:23:10;4.15;;;2.28;;
26598;SDS011;14240;51.064;16.612;2023-08-24T08:25:36;5.28;;;2.50;;
26598;SDS011;14240;51.064;16.612;2023-08-24T08:28:03;3.03;;;2.53;;
26598;SDS011;14240;51.064;16.612;2023-08-24T08:30:28;2.67;;;2.47;;
26598;SDS011;14240;51.064;16.612;2023-08-24T08:32:54;6.90;;;2.30;;
26598;SDS011;14240;51.064;16.612;2023-08-24T08:35:21;5.85;;;2.38;;
26598;SDS011;14240;51.064;16.612;2023-08-24T08:37:47;4.75;;;2.22;;
26598;SDS011;14240;51.064;16.612;2023-08-24T08:40:14;3.75;;;2.13;;
26598;SDS011;14240;51.064;16.612;2023-08-24T08:42:40;3.17;;;2.10;;
26598;SDS011;14240;51.064;16.612;2023-08-24T08:45:09;4.35;;;2.13;;
26598;SDS011;14240;51.064;16.612;2023-08-24T08:47:36;3.13;;;1.23;;
26598;SDS011;14240;51.064;16.612;2023-08-24T08:50:02;2.33;;;1.90;;
26598;SDS011;14240;51.064;16.612;2023-08-24T08:52:29;5.97;;;2.40;;
26598;SDS011;14240;51.064;16.612;2023-08-24T08:54:56;5.32;;;3.00;;
26598;SDS011;14240;51.064;16.612;2023-08-24T08:57:23;3.60;;;2.33;;
26598;SDS011;14240;51.064;16.612;2023-08-24T08:59:51;3.53;;;2.33;;
26598;SDS011;14240;51.064;16.612;2023-08-24T09:02:18;4.03;;;2.42;;
26598;SDS011;14240;51.064;16.612;2023-08-24T09:04:47;3.47;;;2.17;;
26598;SDS011;14240;51.064;16.612;2023-08-24T09:07:15;2.97;;;1.92;;
26598;SDS011;14240;51.064;16.612;2023-08-24T09:09:42;6.55;;;2.53;;
26598;SDS011;14240;51.064;16.612;2023-08-24T09:12:08;5.32;;;2.42;;
26598;SDS011;14240;51.064;16.612;2023-08-24T09:14:34;3.20;;;2.30;;
26598;SDS011;14240;51.064;16.612;2023-08-24T09:17:00;2.40;;;2.20;;
26598;SDS011;14240;51.064;16.612;2023-08-24T09:19:29;4.40;;;2.45;;
26598;SDS011;14240;51.064;16.612;2023-08-24T09:21:56;2.40;;;2.20;;
26598;SDS011;14240;51.064;16.612;2023-08-24T09:24:29;4.45;;;1.95;;
26598;SDS011;14240;51.064;16.612;2023-08-24T09:26:59;5.63;;;1.85;;
26598;SDS011;14240;51.064;16.612;2023-08-24T09:29:51;3.63;;;2.00;;
26598;SDS011;14240;51.064;16.612;2023-08-24T09:34:52;4.03;;;2.50;;
26598;SDS011;14240;51.064;16.612;2023-08-24T09:37:18;3.83;;;2.60;;
26598;SDS011;14240;51.064;16.612;2023-08-24T09:39:45;3.17;;;2.10;;
26598;SDS011;14240;51.064;16.612;2023-08-24T09:42:11;4.97;;;2.05;;
26598;SDS011;14240;51.064;16.612;2023-08-24T09:44:37;3.37;;;2.40;;
26598;SDS011;14240;51.064;16.612;2023-08-24T09:47:11;3.92;;;2.58;;
26598;SDS011;14240;51.064;16.612;2023-08-24T09:49:37;3.25;;;2.47;;
26598;SDS011;14240;51.064;16.612;2023-08-24T09:52:05;4.50;;;2.28;;
26598;SDS011;14240;51.064;16.612;2023-08-24T09:54:32;4.47;;;2.90;;
26598;SDS011;14240;51.064;16.612;2023-08-24T09:57:02;5.07;;;2.70;;
26598;SDS011;14240;51.064;16.612;2023-08-24T09:59:29;5.22;;;2.08;;
26598;SDS011;14240;51.064;16.612;2023-08-24T10:01:57;5.30;;;2.50;;
26598;SDS011;14240;51.064;16.612;2023-08-24T10:04:32;5.78;;;3.28;;
26598;SDS011;14240;51.064;16.612;2023-08-24T10:07:10;3.28;;;2.40;;
26598;SDS011;14240;51.064;16.612;2023-08-24T10:09:44;4.43;;;3.28;;
26598;SDS011;14240;51.064;16.612;2023-08-24T10:12:15;3.55;;;2.90;;
26598;SDS011;14240;51.064;16.612;2023-08-24T10:15:01;3.17;;;2.45;;
26598;SDS011;14240;51.064;16.612;2023-08-24T10:17:29;6.05;;;3.35;;
26598;SDS011;14240;51.064;16.612;2023-08-24T10:19:56;4.65;;;2.38;;
26598;SDS011;14240;51.064;16.612;2023-08-24T10:22:26;5.20;;;2.17;;
26598;SDS011;14240;51.064;16.612;2023-08-24T10:24:54;7.65;;;2.53;;
26598;SDS011;14240;51.064;16.612;2023-08-24T10:27:22;3.95;;;2.20;;
26598;SDS011;14240;51.064;16.612;2023-08-24T10:29:49;3.50;;;2.00;;
26598;SDS011;14240;51.064;16.612;2023-08-24T10:32:14;3.17;;;2.15;;
26598;SDS011;14240;51.064;16.612;2023-08-24T10:34:41;7.65;;;2.90;;
26598;SDS011;14240;51.064;16.612;2023-08-24T10:37:10;4.68;;;2.30;;
26598;SDS011;14240;51.064;16.612;2023-08-24T10:39:46;6.90;;;2.40;;
26598;SDS011;14240;51.064;16.612;2023-08-24T10:42:13;3.33;;;2.28;;
26598;SDS011;14240;51.064;16.612;2023-08-24T10:44:39;4.72;;;2.35;;
26598;SDS011;14240;51.064;16.612;2023-08-24T10:47:17;4.57;;;2.22;;
26598;SDS011;14240;51.064;16.612;2023-08-24T10:52:32;6.32;;;2.10;;
26598;SDS011;14240;51.064;16.612;2023-08-24T10:55:01;3.05;;;2.28;;
26598;SDS011;14240;51.064;16.612;2023-08-24T10:57:35;3.55;;;2.35;;
26598;SDS011;14240;51.064;16.612;2023-08-24T11:00:09;6.28;;;2.40;;
26598;SDS011;14240;51.064;16.612;2023-08-24T11:07:57;4.57;;;2.78;;
26598;SDS011;14240;51.064;16.612;2023-08-24T11:10:31;3.42;;;2.60;;
26598;SDS011;14240;51.064;16.612;2023-08-24T11:20:46;3.47;;;2.80;;
26598;SDS011;14240;51.064;16.612;2023-08-24T11:23:17;3.63;;;2.20;;
26598;SDS011;14240;51.064;16.612;2023-08-24T11:25:44;3.22;;;2.50;;
26598;SDS011;14240;51.064;16.612;2023-08-24T11:28:18;2.20;;;2.00;;
26598;SDS011;14240;51.064;16.612;2023-08-24T11:30:45;2.88;;;1.85;;
26598;SDS011;14240;51.064;16.612;2023-08-24T11:33:11;3.53;;;2.50;;
26598;SDS011;14240;51.064;16.612;2023-08-24T11:35:43;2.58;;;2.30;;
26598;SDS011;14240;51.064;16.612;2023-08-24T11:38:10;4.22;;;2.00;;
26598;SDS011;14240;51.064;16.612;2023-08-24T11:40:36;3.83;;;2.17;;
26598;SDS011;14240;51.064;16.612;2023-08-24T11:43:02;2.38;;;1.58;;
26598;SDS011;14240;51.064;16.612;2023-08-24T11:45:30;5.00;;;1.95;;
26598;SDS011;14240;51.064;16.612;2023-08-24T11:48:01;2.00;;;1.80;;
26598;SDS011;14240;51.064;16.612;2023-08-24T11:50:29;3.65;;;2.42;;
26598;SDS011;14240;51.064;16.612;2023-08-24T11:52:59;2.90;;;1.90;;
26598;SDS011;14240;51.064;16.612;2023-08-24T11:55:26;4.15;;;2.35;;
26598;SDS011;14240;51.064;16.612;2023-08-24T11:57:51;6.10;;;2.45;;
26598;SDS011;14240;51.064;16.612;2023-08-24T12:00:20;2.70;;;2.50;;
26598;SDS011;14240;51.064;16.612;2023-08-24T12:02:47;5.25;;;1.95;;
26598;SDS011;14240;51.064;16.612;2023-08-24T12:05:20;3.42;;;2.10;;
26598;SDS011;14240;51.064;16.612;2023-08-24T12:07:53;2.80;;;1.77;;
26598;SDS011;14240;51.064;16.612;2023-08-24T12:10:20;2.60;;;2.22;;
26598;SDS011;14240;51.064;16.612;2023-08-24T12:12:46;3.77;;;2.40;;
26598;SDS011;14240;51.064;16.612;2023-08-24T12:15:19;5.10;;;2.10;;
26598;SDS011;14240;51.064;16.612;2023-08-24T12:17:46;2.67;;;2.05;;
26598;SDS011;14240;51.064;16.612;2023-08-24T12:20:22;2.50;;;2.13;;
26598;SDS011;14240;51.064;16.612;2023-08-24T12:22:51;2.63;;;2.20;;
26598;SDS011;14240;51.064;16.612;2023-08-24T12:25:24;4.95;;;1.92;;
26598;SDS011;14240;51.064;16.612;2023-08-24T12:27:55;6.72;;;2.25;;
26598;SDS011;14240;51.064;16.612;2023-08-24T12:30:43;2.55;;;2.20;;
26598;SDS011;14240;51.064;16.612;2023-08-24T12:33:25;2.00;;;1.73;;
26598;SDS011;14240;51.064;16.612;2023-08-24T12:35:53;3.17;;;1.88;;
26598;SDS011;14240;51.064;16.612;2023-08-24T12:40:46;2.90;;;2.33;;
26598;SDS011;14240;51.064;16.612;2023-08-24T12:43:12;9.13;;;2.20;;
26598;SDS011;14240;51.064;16.612;2023-08-24T12:45:38;4.03;;;1.98;;
26598;SDS011;14240;51.064;16.612;2023-08-24T12:48:04;4.00;;;2.00;;
26598;SDS011;14240;51.064;16.612;2023-08-24T12:50:30;2.53;;;2.15;;
26598;SDS011;14240;51.064;16.612;2023-08-24T12:52:56;2.38;;;2.10;;
26598;SDS011;14240;51.064;16.612;2023-08-24T12:55:25;2.95;;;2.55;;
26598;SDS011;14240;51.064;16.612;2023-08-24T12:57:52;3.13;;;2.17;;
26598;SDS011;14240;51.064;16.612;2023-08-24T13:00:18;3.75;;;2.03;;
26598;SDS011;14240;51.064;16.612;2023-08-24T13:02:44;3.13;;;2.30;;
26598;SDS011;14240;51.064;16.612;2023-08-24T13:05:10;2.95;;;1.90;;
26598;SDS011;14240;51.064;16.612;2023-08-24T13:07:36;3.88;;;1.92;;
26598;SDS011;14240;51.064;16.612;2023-08-24T13:10:03;4.50;;;2.30;;
26598;SDS011;14240;51.064;16.612;2023-08-24T13:12:29;2.67;;;2.22;;
26598;SDS011;14240;51.064;16.612;2023-08-24T13:14:55;2.00;;;1.80;;
26598;SDS011;14240;51.064;16.612;2023-08-24T13:17:21;2.35;;;1.90;;
26598;SDS011;14240;51.064;16.612;2023-08-24T13:19:46;4.35;;;2.40;;
26598;SDS011;14240;51.064;16.612;2023-08-24T13:22:14;5.38;;;2.40;;
26598;SDS011;14240;51.064;16.612;2023-08-24T13:24:40;2.70;;;1.83;;
26598;SDS011;14240;51.064;16.612;2023-08-24T13:27:09;5.78;;;2.25;;
26598;SDS011;14240;51.064;16.612;2023-08-24T13:29:38;2.50;;;1.98;;
26598;SDS011;14240;51.064;16.612;2023-08-24T13:32:05;3.90;;;2.10;;
26598;SDS011;14240;51.064;16.612;2023-08-24T13:34:31;2.92;;;2.17;;
26598;SDS011;14240;51.064;16.612;2023-08-24T13:36:57;3.03;;;2.22;;
26598;SDS011;14240;51.064;16.612;2023-08-24T13:39:25;2.63;;;2.42;;
26598;SDS011;14240;51.064;16.612;2023-08-24T13:41:53;3.33;;;1.95;;
26598;SDS011;14240;51.064;16.612;2023-08-24T13:44:19;4.38;;;2.03;;
26598;SDS011;14240;51.064;16.612;2023-08-24T13:46:45;3.15;;;2.20;;
26598;SDS011;14240;51.064;16.612;2023-08-24T13:49:11;2.45;;;2.25;;
26598;SDS011;14240;51.064;16.612;2023-08-24T13:51:37;2.40;;;1.52;;
26598;SDS011;14240;51.064;16.612;2023-08-24T13:54:08;4.15;;;2.22;;
26598;SDS011;14240;51.064;16.612;2023-08-24T13:56:41;3.25;;;2.58;;
26598;SDS011;14240;51.064;16.612;2023-08-24T13:59:11;3.10;;;2.22;;
26598;SDS011;14240;51.064;16.612;2023-08-24T14:01:38;3.70;;;2.37;;
26598;SDS011;14240;51.064;16.612;2023-08-24T14:04:04;2.67;;;2.20;;
26598;SDS011;14240;51.064;16.612;2023-08-24T14:06:30;5.30;;;2.72;;
26598;SDS011;14240;51.064;16.612;2023-08-24T14:08:56;2.72;;;2.25;;
26598;SDS011;14240;51.064;16.612;2023-08-24T14:11:23;2.20;;;2.00;;
26598;SDS011;14240;51.064;16.612;2023-08-24T14:13:49;6.10;;;2.40;;
26598;SDS011;14240;51.064;16.612;2023-08-24T14:16:14;4.22;;;2.50;;
26598;SDS011;14240;51.064;16.612;2023-08-24T14:18:40;4.47;;;2.58;;
26598;SDS011;14240;51.064;16.612;2023-08-24T14:21:06;2.50;;;2.30;;
26598;SDS011;14240;51.064;16.612;2023-08-24T14:23:31;3.85;;;2.58;;
26598;SDS011;14240;51.064;16.612;2023-08-24T14:25:57;3.35;;;2.50;;
26598;SDS011;14240;51.064;16.612;2023-08-24T14:28:23;5.45;;;2.67;;
26598;SDS011;14240;51.064;16.612;2023-08-24T14:30:49;5.07;;;2.58;;
26598;SDS011;14240;51.064;16.612;2023-08-24T14:33:15;2.93;;;2.30;;
26598;SDS011;14240;51.064;16.612;2023-08-24T14:35:48;3.30;;;2.40;;
26598;SDS011;14240;51.064;16.612;2023-08-24T14:38:17;3.35;;;2.47;;
26598;SDS011;14240;51.064;16.612;2023-08-24T14:40:44;3.55;;;2.20;;
26598;SDS011;14240;51.064;16.612;2023-08-24T14:43:09;3.97;;;2.67;;
26598;SDS011;14240;51.064;16.612;2023-08-24T14:45:35;5.15;;;2.80;;
26598;SDS011;14240;51.064;16.612;2023-08-24T14:48:01;4.50;;;2.60;;
26598;SDS011;14240;51.064;16.612;2023-08-24T14:50:27;2.50;;;2.20;;
26598;SDS011;14240;51.064;16.612;2023-08-24T14:52:53;3.10;;;2.28;;
26598;SDS011;14240;51.064;16.612;2023-08-24T14:55:18;3.60;;;2.13;;
26598;SDS011;14240;51.064;16.612;2023-08-24T14:57:44;6.15;;;2.67;;
26598;SDS011;14240;51.064;16.612;2023-08-24T15:00:10;6.15;;;2.72;;
26598;SDS011;14240;51.064;16.612;2023-08-24T15:02:36;3.30;;;2.63;;
26598;SDS011;14240;51.064;16.612;2023-08-24T15:05:02;3.88;;;2.90;;